sensor_id;sensor_type;location;lat;lon;timestamp;temperature;humidity
48575;DHT22;34352;51.084;3.712;2023-06-22T00:01:51;19.50;1.00
48575;DHT22;34352;51.084;3.712;2023-06-22T00:04:17;19.50;1.00
48575;DHT22;34352;51.084;3.712;2023-06-22T00:07:11;19.50;1.00
48575;DHT22;34352;51.084;3.712;2023-06-22T00:09:43;19.50;1.00
48575;DHT22;34352;51.084;3.712;2023-06-22T00:12:20;19.30;1.00
48575;DHT22;34352;51.084;3.712;2023-06-22T00:14:50;19.40;1.00
48575;DHT22;34352;51.084;3.712;2023-06-22T00:17:30;19.50;1.00
48575;DHT22;34352;51.084;3.712;2023-06-22T00:20:07;19.50;1.00
48575;DHT22;34352;51.084;3.712;2023-06-22T00:22:55;19.50;1.00
48575;DHT22;34352;51.084;3.712;2023-06-22T00:28:45;19.40;1.00
48575;DHT22;34352;51.084;3.712;2023-06-22T00:31:11;19.40;1.00
48575;DHT22;34352;51.084;3.712;2023-06-22T00:33:40;19.30;1.00
48575;DHT22;34352;51.084;3.712;2023-06-22T00:42:11;19.20;1.00
48575;DHT22;34352;51.084;3.712;2023-06-22T00:44:47;19.20;1.00
48575;DHT22;34352;51.084;3.712;2023-06-22T00:47:23;19.10;1.20
48575;DHT22;34352;51.084;3.712;2023-06-22T00:49:51;19.10;2.90
48575;DHT22;34352;51.084;3.712;2023-06-22T00:55:42;19.10;3.10
48575;DHT22;34352;51.084;3.712;2023-06-22T00:58:22;19.10;1.00
48575;DHT22;34352;51.084;3.712;2023-06-22T01:01:19;19.10;1.00
48575;DHT22;34352;51.084;3.712;2023-06-22T01:03:50;19.10;1.00
48575;DHT22;34352;51.084;3.712;2023-06-22T01:06:21;19.00;1.00
48575;DHT22;34352;51.084;3.712;2023-06-22T01:09:22;18.90;1.00
48575;DHT22;34352;51.084;3.712;2023-06-22T01:12:02;18.90;1.00
48575;DHT22;34352;51.084;3.712;2023-06-22T01:14:43;18.80;4.20
48575;DHT22;34352;51.084;3.712;2023-06-22T01:17:13;18.70;7.80
48575;DHT22;34352;51.084;3.712;2023-06-22T01:19:49;18.70;5.60
48575;DHT22;34352;51.084;3.712;2023-06-22T01:22:25;18.60;8.40
48575;DHT22;34352;51.084;3.712;2023-06-22T01:28:29;18.50;9.30
48575;DHT22;34352;51.084;3.712;2023-06-22T01:31:18;18.50;11.50
48575;DHT22;34352;51.084;3.712;2023-06-22T01:33:50;18.50;8.80
48575;DHT22;34352;51.084;3.712;2023-06-22T01:36:17;18.40;9.80
48575;DHT22;34352;51.084;3.712;2023-06-22T01:38:58;18.50;9.50
48575;DHT22;34352;51.084;3.712;2023-06-22T01:41:30;18.50;8.30
48575;DHT22;34352;51.084;3.712;2023-06-22T01:44:13;18.40;10.10
48575;DHT22;34352;51.084;3.712;2023-06-22T01:49:43;18.30;7.10
48575;DHT22;34352;51.084;3.712;2023-06-22T01:52:10;18.30;10.00
48575;DHT22;34352;51.084;3.712;2023-06-22T01:54:59;18.20;9.40
48575;DHT22;34352;51.084;3.712;2023-06-22T02:01:10;18.20;1.30
48575;DHT22;34352;51.084;3.712;2023-06-22T02:03:48;18.10;1.00
48575;DHT22;34352;51.084;3.712;2023-06-22T02:09:24;18.10;1.00
48575;DHT22;34352;51.084;3.712;2023-06-22T02:11:59;18.00;1.00
48575;DHT22;34352;51.084;3.712;2023-06-22T02:14:57;17.90;5.00
48575;DHT22;34352;51.084;3.712;2023-06-22T02:17:33;17.90;13.60
48575;DHT22;34352;51.084;3.712;2023-06-22T02:20:11;17.90;16.50
48575;DHT22;34352;51.084;3.712;2023-06-22T02:22:46;17.80;17.60
48575;DHT22;34352;51.084;3.712;2023-06-22T02:25:23;17.80;19.20
48575;DHT22;34352;51.084;3.712;2023-06-22T02:28:11;17.80;18.90
48575;DHT22;34352;51.084;3.712;2023-06-22T02:30:46;17.70;22.50
48575;DHT22;34352;51.084;3.712;2023-06-22T02:33:44;17.70;25.50
48575;DHT22;34352;51.084;3.712;2023-06-22T02:39:32;17.70;26.80
48575;DHT22;34352;51.084;3.712;2023-06-22T02:41:58;17.60;27.60
48575;DHT22;34352;51.084;3.712;2023-06-22T02:44:25;17.60;27.30
48575;DHT22;34352;51.084;3.712;2023-06-22T02:46:50;17.60;28.20
48575;DHT22;34352;51.084;3.712;2023-06-22T02:49:50;17.60;28.00
48575;DHT22;34352;51.084;3.712;2023-06-22T02:52:31;17.60;26.00
48575;DHT22;34352;51.084;3.712;2023-06-22T02:55:09;17.60;25.50
48575;DHT22;34352;51.084;3.712;2023-06-22T03:00:48;17.50;25.80
48575;DHT22;34352;51.084;3.712;2023-06-22T03:03:19;17.50;28.50
48575;DHT22;34352;51.084;3.712;2023-06-22T03:05:45;17.50;29.70
48575;DHT22;34352;51.084;3.712;2023-06-22T03:11:33;17.50;30.90
48575;DHT22;34352;51.084;3.712;2023-06-22T03:14:00;17.40;32.60
48575;DHT22;34352;51.084;3.712;2023-06-22T03:16:26;17.40;33.80
48575;DHT22;34352;51.084;3.712;2023-06-22T03:18:53;17.40;33.60
48575;DHT22;34352;51.084;3.712;2023-06-22T03:24:43;17.30;34.30
48575;DHT22;34352;51.084;3.712;2023-06-22T03:27:28;17.20;37.10
48575;DHT22;34352;51.084;3.712;2023-06-22T03:30:02;17.30;35.40
48575;DHT22;34352;51.084;3.712;2023-06-22T03:32:35;17.20;38.00
48575;DHT22;34352;51.084;3.712;2023-06-22T03:35:24;17.20;38.50
48575;DHT22;34352;51.084;3.712;2023-06-22T03:37:51;17.20;37.70
48575;DHT22;34352;51.084;3.712;2023-06-22T03:40:25;17.20;40.00
48575;DHT22;34352;51.084;3.712;2023-06-22T03:46:13;17.20;39.00
48575;DHT22;34352;51.084;3.712;2023-06-22T03:49:02;17.20;41.80
48575;DHT22;34352;51.084;3.712;2023-06-22T03:52:02;17.20;42.30
48575;DHT22;34352;51.084;3.712;2023-06-22T03:54:29;17.20;45.10
48575;DHT22;34352;51.084;3.712;2023-06-22T03:56:57;17.20;45.20
48575;DHT22;34352;51.084;3.712;2023-06-22T04:02:38;17.30;48.00
48575;DHT22;34352;51.084;3.712;2023-06-22T04:05:34;17.30;49.20
48575;DHT22;34352;51.084;3.712;2023-06-22T04:08:04;17.40;49.00
48575;DHT22;34352;51.084;3.712;2023-06-22T04:10:42;17.40;49.20
48575;DHT22;34352;51.084;3.712;2023-06-22T04:17:00;17.60;49.50
48575;DHT22;34352;51.084;3.712;2023-06-22T04:20:01;17.60;50.20
48575;DHT22;34352;51.084;3.712;2023-06-22T04:22:55;17.80;50.10
48575;DHT22;34352;51.084;3.712;2023-06-22T04:25:22;17.80;50.60
48575;DHT22;34352;51.084;3.712;2023-06-22T04:28:21;17.90;51.30
48575;DHT22;34352;51.084;3.712;2023-06-22T04:30:46;18.00;51.70
48575;DHT22;34352;51.084;3.712;2023-06-22T04:33:15;18.00;51.50
48575;DHT22;34352;51.084;3.712;2023-06-22T04:42:13;18.40;47.20
48575;DHT22;34352;51.084;3.712;2023-06-22T04:44:53;18.60;47.10
48575;DHT22;34352;51.084;3.712;2023-06-22T04:50:57;18.80;45.50
48575;DHT22;34352;51.084;3.712;2023-06-22T04:53:38;18.90;44.50
48575;DHT22;34352;51.084;3.712;2023-06-22T04:59:31;19.10;40.20
48575;DHT22;34352;51.084;3.712;2023-06-22T05:02:05;19.30;37.70
48575;DHT22;34352;51.084;3.712;2023-06-22T05:07:49;19.60;32.70
48575;DHT22;34352;51.084;3.712;2023-06-22T05:13:21;20.00;25.00
48575;DHT22;34352;51.084;3.712;2023-06-22T05:15:48;20.20;19.00
48575;DHT22;34352;51.084;3.712;2023-06-22T05:18:34;20.40;5.40
48575;DHT22;34352;51.084;3.712;2023-06-22T05:21:12;20.60;1.00
48575;DHT22;34352;51.084;3.712;2023-06-22T05:23:40;20.90;1.00
48575;DHT22;34352;51.084;3.712;2023-06-22T05:26:21;21.10;1.00
48575;DHT22;34352;51.084;3.712;2023-06-22T05:29:10;21.30;1.00
48575;DHT22;34352;51.084;3.712;2023-06-22T05:35:02;21.90;1.00
48575;DHT22;34352;51.084;3.712;2023-06-22T05:37:33;22.10;1.00
48575;DHT22;34352;51.084;3.712;2023-06-22T05:40:11;22.40;1.00
48575;DHT22;34352;51.084;3.712;2023-06-22T05:42:37;22.50;1.00
48575;DHT22;34352;51.084;3.712;2023-06-22T05:45:04;22.70;1.00
48575;DHT22;34352;51.084;3.712;2023-06-22T05:47:55;22.80;1.00
48575;DHT22;34352;51.084;3.712;2023-06-22T05:50:30;22.90;1.00
48575;DHT22;34352;51.084;3.712;2023-06-22T05:52:57;22.90;1.00
48575;DHT22;34352;51.084;3.712;2023-06-22T05:55:26;22.80;1.00
48575;DHT22;34352;51.084;3.712;2023-06-22T05:57:54;23.00;1.00
48575;DHT22;34352;51.084;3.712;2023-06-22T06:00:21;23.00;1.00
48575;DHT22;34352;51.084;3.712;2023-06-22T06:02:48;23.00;1.00
48575;DHT22;34352;51.084;3.712;2023-06-22T06:05:14;23.10;1.00
48575;DHT22;34352;51.084;3.712;2023-06-22T06:07:42;23.20;1.00
48575;DHT22;34352;51.084;3.712;2023-06-22T06:10:09;23.30;1.00
48575;DHT22;34352;51.084;3.712;2023-06-22T06:12:34;23.40;1.00
48575;DHT22;34352;51.084;3.712;2023-06-22T06:15:01;23.40;1.00
48575;DHT22;34352;51.084;3.712;2023-06-22T06:17:27;23.50;1.00
48575;DHT22;34352;51.084;3.712;2023-06-22T06:19:53;23.50;1.00
48575;DHT22;34352;51.084;3.712;2023-06-22T06:22:18;23.50;1.00
48575;DHT22;34352;51.084;3.712;2023-06-22T06:24:47;23.50;1.00
48575;DHT22;34352;51.084;3.712;2023-06-22T06:27:13;23.50;1.00
48575;DHT22;34352;51.084;3.712;2023-06-22T06:29:39;23.60;1.00
48575;DHT22;34352;51.084;3.712;2023-06-22T06:32:05;23.60;1.00
48575;DHT22;34352;51.084;3.712;2023-06-22T06:34:31;23.80;1.00
48575;DHT22;34352;51.084;3.712;2023-06-22T06:36:57;23.60;1.00
48575;DHT22;34352;51.084;3.712;2023-06-22T06:39:22;23.80;1.00
48575;DHT22;34352;51.084;3.712;2023-06-22T06:41:48;23.90;1.00
48575;DHT22;34352;51.084;3.712;2023-06-22T06:44:14;23.90;1.00
48575;DHT22;34352;51.084;3.712;2023-06-22T06:46:39;23.90;1.00
48575;DHT22;34352;51.084;3.712;2023-06-22T06:49:08;24.00;1.00
48575;DHT22;34352;51.084;3.712;2023-06-22T06:51:34;24.00;1.00
48575;DHT22;34352;51.084;3.712;2023-06-22T06:54:00;24.20;1.00
48575;DHT22;34352;51.084;3.712;2023-06-22T06:56:26;24.40;1.00
48575;DHT22;34352;51.084;3.712;2023-06-22T06:58:52;24.40;1.00
48575;DHT22;34352;51.084;3.712;2023-06-22T07:01:18;24.50;1.00
48575;DHT22;34352;51.084;3.712;2023-06-22T07:03:45;24.80;1.00
48575;DHT22;34352;51.084;3.712;2023-06-22T07:06:12;24.90;1.00
48575;DHT22;34352;51.084;3.712;2023-06-22T07:08:39;24.80;1.00
48575;DHT22;34352;51.084;3.712;2023-06-22T07:11:06;24.70;1.00
48575;DHT22;34352;51.084;3.712;2023-06-22T07:13:31;24.90;1.00
48575;DHT22;34352;51.084;3.712;2023-06-22T07:15:57;24.70;1.00
48575;DHT22;34352;51.084;3.712;2023-06-22T07:18:24;24.70;1.00
48575;DHT22;34352;51.084;3.712;2023-06-22T07:20:49;24.80;1.00
48575;DHT22;34352;51.084;3.712;2023-06-22T07:23:15;24.90;1.00
48575;DHT22;34352;51.084;3.712;2023-06-22T07:25:41;25.10;1.00
48575;DHT22;34352;51.084;3.712;2023-06-22T07:28:08;25.20;1.00
48575;DHT22;34352;51.084;3.712;2023-06-22T07:30:34;25.30;1.00
48575;DHT22;34352;51.084;3.712;2023-06-22T07:33:00;25.30;1.00
48575;DHT22;34352;51.084;3.712;2023-06-22T07:35:32;25.40;1.00
48575;DHT22;34352;51.084;3.712;2023-06-22T07:37:59;25.50;1.00
48575;DHT22;34352;51.084;3.712;2023-06-22T07:40:25;25.60;1.00
48575;DHT22;34352;51.084;3.712;2023-06-22T07:42:51;25.70;1.00
48575;DHT22;34352;51.084;3.712;2023-06-22T07:45:20;25.70;1.00
48575;DHT22;34352;51.084;3.712;2023-06-22T07:47:47;25.70;1.00
48575;DHT22;34352;51.084;3.712;2023-06-22T07:50:12;25.70;1.00
48575;DHT22;34352;51.084;3.712;2023-06-22T07:52:38;25.60;1.00
48575;DHT22;34352;51.084;3.712;2023-06-22T07:55:05;25.50;1.00
48575;DHT22;34352;51.084;3.712;2023-06-22T07:57:31;25.70;1.00
48575;DHT22;34352;51.084;3.712;2023-06-22T08:00:04;25.90;1.00
48575;DHT22;34352;51.084;3.712;2023-06-22T08:02:40;26.20;1.00
48575;DHT22;34352;51.084;3.712;2023-06-22T08:05:10;26.00;1.00
48575;DHT22;34352;51.084;3.712;2023-06-22T08:07:37;26.00;1.00
48575;DHT22;34352;51.084;3.712;2023-06-22T08:10:04;26.00;1.00
48575;DHT22;34352;51.084;3.712;2023-06-22T08:12:30;25.80;1.00
48575;DHT22;34352;51.084;3.712;2023-06-22T08:14:55;25.90;1.00
48575;DHT22;34352;51.084;3.712;2023-06-22T08:17:23;26.10;1.00
48575;DHT22;34352;51.084;3.712;2023-06-22T08:19:48;26.10;1.00
48575;DHT22;34352;51.084;3.712;2023-06-22T08:22:16;25.90;1.00
48575;DHT22;34352;51.084;3.712;2023-06-22T08:24:42;25.70;1.00
48575;DHT22;34352;51.084;3.712;2023-06-22T08:27:08;25.80;1.00
48575;DHT22;34352;51.084;3.712;2023-06-22T08:29:41;25.70;1.00
48575;DHT22;34352;51.084;3.712;2023-06-22T08:32:11;25.50;1.00
48575;DHT22;34352;51.084;3.712;2023-06-22T08:34:37;25.60;1.00
48575;DHT22;34352;51.084;3.712;2023-06-22T08:37:08;25.50;1.00
48575;DHT22;34352;51.084;3.712;2023-06-22T08:39:34;25.40;1.00
48575;DHT22;34352;51.084;3.712;2023-06-22T08:41:59;25.40;1.00
48575;DHT22;34352;51.084;3.712;2023-06-22T08:44:25;25.40;1.00
48575;DHT22;34352;51.084;3.712;2023-06-22T08:46:51;25.30;1.00
48575;DHT22;34352;51.084;3.712;2023-06-22T08:49:17;25.30;1.00
48575;DHT22;34352;51.084;3.712;2023-06-22T08:51:43;25.10;1.00
48575;DHT22;34352;51.084;3.712;2023-06-22T08:54:11;25.00;1.00
48575;DHT22;34352;51.084;3.712;2023-06-22T08:56:37;24.90;1.00
48575;DHT22;34352;51.084;3.712;2023-06-22T08:59:02;24.90;1.00
48575;DHT22;34352;51.084;3.712;2023-06-22T09:01:29;25.00;1.00
48575;DHT22;34352;51.084;3.712;2023-06-22T09:03:54;24.80;1.00
48575;DHT22;34352;51.084;3.712;2023-06-22T09:06:21;24.70;1.00
48575;DHT22;34352;51.084;3.712;2023-06-22T09:08:47;24.70;1.00
48575;DHT22;34352;51.084;3.712;2023-06-22T09:11:13;24.80;1.00
48575;DHT22;34352;51.084;3.712;2023-06-22T09:13:39;24.80;1.00
48575;DHT22;34352;51.084;3.712;2023-06-22T09:16:05;24.70;1.00
48575;DHT22;34352;51.084;3.712;2023-06-22T09:18:30;24.70;1.00
48575;DHT22;34352;51.084;3.712;2023-06-22T09:20:56;24.50;1.00
48575;DHT22;34352;51.084;3.712;2023-06-22T09:23:22;24.40;1.00
48575;DHT22;34352;51.084;3.712;2023-06-22T09:25:48;24.10;1.00
48575;DHT22;34352;51.084;3.712;2023-06-22T09:28:14;24.00;1.00
48575;DHT22;34352;51.084;3.712;2023-06-22T09:30:40;23.90;1.00
48575;DHT22;34352;51.084;3.712;2023-06-22T09:33:08;23.80;1.00
48575;DHT22;34352;51.084;3.712;2023-06-22T09:35:33;23.70;1.00
48575;DHT22;34352;51.084;3.712;2023-06-22T09:37:59;23.60;1.00
48575;DHT22;34352;51.084;3.712;2023-06-22T09:40:25;23.50;1.00
48575;DHT22;34352;51.084;3.712;2023-06-22T09:42:51;23.50;1.00
48575;DHT22;34352;51.084;3.712;2023-06-22T09:45:16;23.40;1.00
48575;DHT22;34352;51.084;3.712;2023-06-22T09:47:42;23.30;1.00
48575;DHT22;34352;51.084;3.712;2023-06-22T09:50:08;23.40;1.00
48575;DHT22;34352;51.084;3.712;2023-06-22T09:52:35;23.30;1.00
48575;DHT22;34352;51.084;3.712;2023-06-22T09:55:00;23.50;1.00
48575;DHT22;34352;51.084;3.712;2023-06-22T09:57:26;23.60;1.00
48575;DHT22;34352;51.084;3.712;2023-06-22T09:59:51;23.60;1.00
48575;DHT22;34352;51.084;3.712;2023-06-22T10:02:17;23.70;1.00
48575;DHT22;34352;51.084;3.712;2023-06-22T10:04:43;23.70;1.00
48575;DHT22;34352;51.084;3.712;2023-06-22T10:07:08;23.60;1.00
48575;DHT22;34352;51.084;3.712;2023-06-22T10:09:34;23.70;1.00
48575;DHT22;34352;51.084;3.712;2023-06-22T10:11:59;23.70;1.00
48575;DHT22;34352;51.084;3.712;2023-06-22T10:14:25;23.60;1.00
48575;DHT22;34352;51.084;3.712;2023-06-22T10:16:52;23.50;1.00
48575;DHT22;34352;51.084;3.712;2023-06-22T10:19:19;23.50;1.00
48575;DHT22;34352;51.084;3.712;2023-06-22T10:21:45;23.50;1.00
48575;DHT22;34352;51.084;3.712;2023-06-22T10:24:10;23.40;1.00
48575;DHT22;34352;51.084;3.712;2023-06-22T10:26:36;23.30;1.00
48575;DHT22;34352;51.084;3.712;2023-06-22T10:29:03;23.30;1.00
48575;DHT22;34352;51.084;3.712;2023-06-22T10:31:29;23.30;1.00
48575;DHT22;34352;51.084;3.712;2023-06-22T10:33:55;23.10;1.00
48575;DHT22;34352;51.084;3.712;2023-06-22T10:36:23;23.00;1.00
48575;DHT22;34352;51.084;3.712;2023-06-22T10:38:49;22.80;1.00
48575;DHT22;34352;51.084;3.712;2023-06-22T10:41:15;22.70;1.00
48575;DHT22;34352;51.084;3.712;2023-06-22T10:43:42;22.80;1.00
48575;DHT22;34352;51.084;3.712;2023-06-22T10:46:07;22.80;1.00
48575;DHT22;34352;51.084;3.712;2023-06-22T10:48:35;22.70;1.00
48575;DHT22;34352;51.084;3.712;2023-06-22T10:51:01;22.90;1.00
48575;DHT22;34352;51.084;3.712;2023-06-22T10:53:26;22.80;1.00
48575;DHT22;34352;51.084;3.712;2023-06-22T10:55:52;22.80;1.00
48575;DHT22;34352;51.084;3.712;2023-06-22T10:58:19;22.80;1.00
48575;DHT22;34352;51.084;3.712;2023-06-22T11:00:45;22.90;1.00
48575;DHT22;34352;51.084;3.712;2023-06-22T11:03:11;23.10;1.00
48575;DHT22;34352;51.084;3.712;2023-06-22T11:05:37;23.10;1.00
48575;DHT22;34352;51.084;3.712;2023-06-22T11:08:03;23.00;1.00
48575;DHT22;34352;51.084;3.712;2023-06-22T11:10:29;23.00;1.00
48575;DHT22;34352;51.084;3.712;2023-06-22T11:12:55;22.90;1.00
48575;DHT22;34352;51.084;3.712;2023-06-22T11:15:22;23.00;1.00
48575;DHT22;34352;51.084;3.712;2023-06-22T11:17:48;23.00;1.00
48575;DHT22;34352;51.084;3.712;2023-06-22T11:20:13;22.70;1.00
48575;DHT22;34352;51.084;3.712;2023-06-22T11:22:40;22.50;1.00
48575;DHT22;34352;51.084;3.712;2023-06-22T11:25:07;22.50;1.00
48575;DHT22;34352;51.084;3.712;2023-06-22T11:27:34;22.30;1.00
48575;DHT22;34352;51.084;3.712;2023-06-22T11:30:01;22.10;1.00
48575;DHT22;34352;51.084;3.712;2023-06-22T11:32:26;21.90;1.00
48575;DHT22;34352;51.084;3.712;2023-06-22T11:34:52;21.90;1.00
48575;DHT22;34352;51.084;3.712;2023-06-22T11:37:17;21.90;1.00
48575;DHT22;34352;51.084;3.712;2023-06-22T11:39:43;21.90;1.00
48575;DHT22;34352;51.084;3.712;2023-06-22T11:42:10;21.90;1.00
48575;DHT22;34352;51.084;3.712;2023-06-22T11:44:35;21.80;1.00
48575;DHT22;34352;51.084;3.712;2023-06-22T11:47:01;21.80;1.00
48575;DHT22;34352;51.084;3.712;2023-06-22T11:49:30;21.70;1.00
48575;DHT22;34352;51.084;3.712;2023-06-22T11:51:56;21.70;1.00
48575;DHT22;34352;51.084;3.712;2023-06-22T11:54:21;21.80;1.00
48575;DHT22;34352;51.084;3.712;2023-06-22T11:56:47;21.70;1.00
48575;DHT22;34352;51.084;3.712;2023-06-22T11:59:14;21.70;1.00
48575;DHT22;34352;51.084;3.712;2023-06-22T12:01:39;21.60;1.00
48575;DHT22;34352;51.084;3.712;2023-06-22T12:04:05;21.60;1.00
48575;DHT22;34352;51.084;3.712;2023-06-22T12:06:37;21.70;1.00
48575;DHT22;34352;51.084;3.712;2023-06-22T12:09:03;21.90;1.00
48575;DHT22;34352;51.084;3.712;2023-06-22T12:11:30;22.10;1.00
48575;DHT22;34352;51.084;3.712;2023-06-22T12:13:56;22.40;1.00
48575;DHT22;34352;51.084;3.712;2023-06-22T12:16:21;22.60;1.00
48575;DHT22;34352;51.084;3.712;2023-06-22T12:18:48;22.70;1.00
48575;DHT22;34352;51.084;3.712;2023-06-22T12:21:13;22.80;1.00
48575;DHT22;34352;51.084;3.712;2023-06-22T12:23:39;22.80;1.00
48575;DHT22;34352;51.084;3.712;2023-06-22T12:26:05;23.00;1.00
48575;DHT22;34352;51.084;3.712;2023-06-22T12:28:31;23.00;1.00
48575;DHT22;34352;51.084;3.712;2023-06-22T12:30:57;23.10;1.00
48575;DHT22;34352;51.084;3.712;2023-06-22T12:33:22;23.20;1.00
48575;DHT22;34352;51.084;3.712;2023-06-22T12:35:48;23.10;1.00
48575;DHT22;34352;51.084;3.712;2023-06-22T12:38:14;22.90;1.00
48575;DHT22;34352;51.084;3.712;2023-06-22T12:40:40;22.90;1.00
48575;DHT22;34352;51.084;3.712;2023-06-22T12:43:05;22.80;1.00
48575;DHT22;34352;51.084;3.712;2023-06-22T12:45:33;22.70;1.00
48575;DHT22;34352;51.084;3.712;2023-06-22T12:47:59;22.50;1.00
48575;DHT22;34352;51.084;3.712;2023-06-22T12:50:25;22.50;1.00
48575;DHT22;34352;51.084;3.712;2023-06-22T12:52:52;22.40;1.00
48575;DHT22;34352;51.084;3.712;2023-06-22T12:55:19;22.50;1.00
48575;DHT22;34352;51.084;3.712;2023-06-22T12:57:44;22.60;1.00
48575;DHT22;34352;51.084;3.712;2023-06-22T13:00:10;22.60;1.00
48575;DHT22;34352;51.084;3.712;2023-06-22T13:02:37;22.50;1.00
48575;DHT22;34352;51.084;3.712;2023-06-22T13:05:03;22.80;1.00
48575;DHT22;34352;51.084;3.712;2023-06-22T13:07:30;22.90;1.00
48575;DHT22;34352;51.084;3.712;2023-06-22T13:09:56;23.10;1.00
48575;DHT22;34352;51.084;3.712;2023-06-22T13:12:21;23.10;1.00
48575;DHT22;34352;51.084;3.712;2023-06-22T13:14:49;23.20;1.00
48575;DHT22;34352;51.084;3.712;2023-06-22T13:17:15;23.30;1.00
48575;DHT22;34352;51.084;3.712;2023-06-22T13:19:41;23.60;1.00
48575;DHT22;34352;51.084;3.712;2023-06-22T13:22:27;23.70;1.00
48575;DHT22;34352;51.084;3.712;2023-06-22T13:24:54;23.80;1.00
48575;DHT22;34352;51.084;3.712;2023-06-22T13:27:20;24.00;1.00
48575;DHT22;34352;51.084;3.712;2023-06-22T13:29:45;24.10;1.00
48575;DHT22;34352;51.084;3.712;2023-06-22T13:32:11;24.20;1.00
48575;DHT22;34352;51.084;3.712;2023-06-22T13:34:37;24.40;1.00
48575;DHT22;34352;51.084;3.712;2023-06-22T13:37:03;24.70;1.00
48575;DHT22;34352;51.084;3.712;2023-06-22T13:39:29;24.90;1.00
48575;DHT22;34352;51.084;3.712;2023-06-22T13:41:56;25.00;1.00
48575;DHT22;34352;51.084;3.712;2023-06-22T13:44:21;25.20;1.00
48575;DHT22;34352;51.084;3.712;2023-06-22T13:46:47;25.30;1.00
48575;DHT22;34352;51.084;3.712;2023-06-22T13:49:13;25.30;1.00
48575;DHT22;34352;51.084;3.712;2023-06-22T13:51:39;25.40;1.00
48575;DHT22;34352;51.084;3.712;2023-06-22T13:54:04;25.50;1.00
48575;DHT22;34352;51.084;3.712;2023-06-22T13:56:30;25.60;1.00
48575;DHT22;34352;51.084;3.712;2023-06-22T13:58:56;25.80;1.00
48575;DHT22;34352;51.084;3.712;2023-06-22T14:01:22;25.80;1.00
48575;DHT22;34352;51.084;3.712;2023-06-22T14:03:48;26.00;1.00
48575;DHT22;34352;51.084;3.712;2023-06-22T14:06:13;26.30;1.00
48575;DHT22;34352;51.084;3.712;2023-06-22T14:08:39;26.40;1.00
48575;DHT22;34352;51.084;3.712;2023-06-22T14:11:05;26.30;1.00
48575;DHT22;34352;51.084;3.712;2023-06-22T14:13:30;26.10;1.00
48575;DHT22;34352;51.084;3.712;2023-06-22T14:15:56;25.90;1.00
48575;DHT22;34352;51.084;3.712;2023-06-22T14:18:22;25.90;1.00
48575;DHT22;34352;51.084;3.712;2023-06-22T14:20:49;25.70;1.00
48575;DHT22;34352;51.084;3.712;2023-06-22T14:23:14;25.50;1.00
48575;DHT22;34352;51.084;3.712;2023-06-22T14:25:40;25.30;1.00
48575;DHT22;34352;51.084;3.712;2023-06-22T14:28:06;25.20;1.00
48575;DHT22;34352;51.084;3.712;2023-06-22T14:30:31;25.20;1.00
48575;DHT22;34352;51.084;3.712;2023-06-22T14:32:57;25.50;1.00
48575;DHT22;34352;51.084;3.712;2023-06-22T14:35:23;25.40;1.00
48575;DHT22;34352;51.084;3.712;2023-06-22T14:37:50;25.60;1.00
48575;DHT22;34352;51.084;3.712;2023-06-22T14:40:15;25.80;1.00
48575;DHT22;34352;51.084;3.712;2023-06-22T14:42:41;26.00;1.00
48575;DHT22;34352;51.084;3.712;2023-06-22T14:45:08;26.10;1.00
48575;DHT22;34352;51.084;3.712;2023-06-22T14:47:33;26.20;1.00
48575;DHT22;34352;51.084;3.712;2023-06-22T14:49:59;26.00;1.00
48575;DHT22;34352;51.084;3.712;2023-06-22T14:52:26;26.20;1.00
48575;DHT22;34352;51.084;3.712;2023-06-22T14:54:55;26.40;1.00
48575;DHT22;34352;51.084;3.712;2023-06-22T14:57:20;26.00;1.00
48575;DHT22;34352;51.084;3.712;2023-06-22T14:59:48;25.90;1.00
48575;DHT22;34352;51.084;3.712;2023-06-22T15:02:16;25.90;1.00
48575;DHT22;34352;51.084;3.712;2023-06-22T15:04:41;25.80;1.00
48575;DHT22;34352;51.084;3.712;2023-06-22T15:07:07;26.00;1.00
48575;DHT22;34352;51.084;3.712;2023-06-22T15:09:33;26.10;1.00
48575;DHT22;34352;51.084;3.712;2023-06-22T15:11:59;26.20;1.00
48575;DHT22;34352;51.084;3.712;2023-06-22T15:14:27;26.10;1.00
48575;DHT22;34352;51.084;3.712;2023-06-22T15:16:53;26.00;1.00
48575;DHT22;34352;51.084;3.712;2023-06-22T15:19:18;26.10;1.00
48575;DHT22;34352;51.084;3.712;2023-06-22T15:21:44;25.90;1.00
48575;DHT22;34352;51.084;3.712;2023-06-22T15:24:11;26.00;1.00
48575;DHT22;34352;51.084;3.712;2023-06-22T15:26:36;25.90;1.00
48575;DHT22;34352;51.084;3.712;2023-06-22T15:29:02;26.00;1.00
48575;DHT22;34352;51.084;3.712;2023-06-22T15:31:27;26.10;1.00
48575;DHT22;34352;51.084;3.712;2023-06-22T15:33:55;26.10;1.00
48575;DHT22;34352;51.084;3.712;2023-06-22T15:36:20;26.40;1.00
48575;DHT22;34352;51.084;3.712;2023-06-22T15:38:46;26.50;1.00
48575;DHT22;34352;51.084;3.712;2023-06-22T15:41:13;26.50;1.00
48575;DHT22;34352;51.084;3.712;2023-06-22T15:43:40;26.50;1.00
48575;DHT22;34352;51.084;3.712;2023-06-22T15:46:05;26.40;1.00
48575;DHT22;34352;51.084;3.712;2023-06-22T15:48:31;26.20;1.00
48575;DHT22;34352;51.084;3.712;2023-06-22T15:50:57;26.00;1.00
48575;DHT22;34352;51.084;3.712;2023-06-22T15:53:22;26.00;1.00
48575;DHT22;34352;51.084;3.712;2023-06-22T15:55:48;25.80;1.00
48575;DHT22;34352;51.084;3.712;2023-06-22T15:58:14;25.70;1.00
48575;DHT22;34352;51.084;3.712;2023-06-22T16:00:42;25.50;1.00
48575;DHT22;34352;51.084;3.712;2023-06-22T16:03:07;25.30;1.00
48575;DHT22;34352;51.084;3.712;2023-06-22T16:05:33;25.10;1.00
48575;DHT22;34352;51.084;3.712;2023-06-22T16:08:00;24.90;1.00
48575;DHT22;34352;51.084;3.712;2023-06-22T16:10:26;24.50;1.00
48575;DHT22;34352;51.084;3.712;2023-06-22T16:12:53;24.30;1.00
48575;DHT22;34352;51.084;3.712;2023-06-22T16:15:20;24.20;1.00
48575;DHT22;34352;51.084;3.712;2023-06-22T16:17:46;24.10;1.00
48575;DHT22;34352;51.084;3.712;2023-06-22T16:20:12;23.80;1.00
48575;DHT22;34352;51.084;3.712;2023-06-22T16:22:38;23.70;1.00
48575;DHT22;34352;51.084;3.712;2023-06-22T16:25:04;23.60;1.00
48575;DHT22;34352;51.084;3.712;2023-06-22T16:27:30;23.70;1.00
48575;DHT22;34352;51.084;3.712;2023-06-22T16:29:57;23.70;1.00
48575;DHT22;34352;51.084;3.712;2023-06-22T16:32:23;23.80;1.00
48575;DHT22;34352;51.084;3.712;2023-06-22T16:34:49;23.90;1.00
48575;DHT22;34352;51.084;3.712;2023-06-22T16:37:16;23.90;1.00
48575;DHT22;34352;51.084;3.712;2023-06-22T16:39:42;23.70;1.00
48575;DHT22;34352;51.084;3.712;2023-06-22T16:42:09;23.80;1.00
48575;DHT22;34352;51.084;3.712;2023-06-22T16:44:35;23.90;1.00
48575;DHT22;34352;51.084;3.712;2023-06-22T16:47:00;23.80;1.00
48575;DHT22;34352;51.084;3.712;2023-06-22T16:49:27;23.80;1.00
48575;DHT22;34352;51.084;3.712;2023-06-22T16:51:53;23.80;1.00
48575;DHT22;34352;51.084;3.712;2023-06-22T16:54:18;23.90;1.00
48575;DHT22;34352;51.084;3.712;2023-06-22T16:56:46;24.00;1.00
48575;DHT22;34352;51.084;3.712;2023-06-22T16:59:12;24.10;1.00
48575;DHT22;34352;51.084;3.712;2023-06-22T17:01:51;24.20;1.00
48575;DHT22;34352;51.084;3.712;2023-06-22T17:04:24;24.10;1.00
48575;DHT22;34352;51.084;3.712;2023-06-22T17:07:03;24.00;1.00
48575;DHT22;34352;51.084;3.712;2023-06-22T17:09:29;24.10;1.00